Colombus, Columbus Air Force Base (KCBM)

NameColumbus Air Force Base
CityColombus
CountryUnited States
ICAOKCBM
IATACBM
Altitude67 m
CoordinatesGoogle Map
Live Air TrafficLiveATC.net
METARKCBM 201056Z AUTO 16015KT 6SM BR OVC005 13/12 A2988 RMK AO2 CIG 004 RWY31C SLP121 T01250116 $
2019-02-20 10:56:00 Wind: South-Southeast (160°) 7.72 m/s - Visibility: 9656.04 m - Weather: Mist - Temperature: 13 °C - Dew point: 12 °C - Humidity: 93.7% - Pressure: 1011.85 hPa
Statistics

The table below shows the detailed information of all flights to/from Colombus, Columbus Air Force Base (KCBM).